sensor_id;sensor_type;location;lat;lon;timestamp;pressure;altitude;pressure_sealevel;temperature;humidity
10127;BME280;13080;42.608;23.362;2023-05-24T00:00:26;153821.22;;;10.75;90.44
10127;BME280;13080;42.608;23.362;2023-05-24T00:02:53;153818.59;;;10.74;90.16
10127;BME280;13080;42.608;23.362;2023-05-24T00:05:21;153818.59;;;10.74;90.61
10127;BME280;13080;42.608;23.362;2023-05-24T00:07:48;153819.94;;;10.74;90.45
10127;BME280;13080;42.608;23.362;2023-05-24T00:10:17;153818.59;;;10.74;90.22
10127;BME280;13080;42.608;23.362;2023-05-24T00:12:44;153816.03;;;10.73;89.81
10127;BME280;13080;42.608;23.362;2023-05-24T00:15:11;153817.31;;;10.73;89.90
10127;BME280;13080;42.608;23.362;2023-05-24T00:17:38;153822.50;;;10.75;89.75
10127;BME280;13080;42.608;23.362;2023-05-24T00:20:07;153816.03;;;10.73;90.05
10127;BME280;13080;42.608;23.362;2023-05-24T00:22:35;153819.94;;;10.74;91.46
10127;BME280;13080;42.608;23.362;2023-05-24T00:25:03;153808.25;;;10.70;91.62
10127;BME280;13080;42.608;23.362;2023-05-24T00:27:31;153817.31;;;10.73;91.53
10127;BME280;13080;42.608;23.362;2023-05-24T00:29:58;153817.31;;;10.73;91.66
10127;BME280;13080;42.608;23.362;2023-05-24T00:32:25;153796.56;;;10.65;91.55
10127;BME280;13080;42.608;23.362;2023-05-24T00:34:52;153775.75;;;10.57;90.78
10127;BME280;13080;42.608;23.362;2023-05-24T00:37:18;153758.88;;;10.50;92.26
10127;BME280;13080;42.608;23.362;2023-05-24T00:39:45;153752.38;;;10.48;92.56
10127;BME280;13080;42.608;23.362;2023-05-24T00:42:12;153740.72;;;10.43;92.44
10127;BME280;13080;42.608;23.362;2023-05-24T00:44:40;153736.78;;;10.42;91.73
10127;BME280;13080;42.608;23.362;2023-05-24T00:47:07;153731.59;;;10.39;93.20
10127;BME280;13080;42.608;23.362;2023-05-24T00:49:34;153719.91;;;10.35;94.21
10127;BME280;13080;42.608;23.362;2023-05-24T00:52:01;153699.06;;;10.27;94.20
10127;BME280;13080;42.608;23.362;2023-05-24T00:54:28;153684.81;;;10.21;93.46
10127;BME280;13080;42.608;23.362;2023-05-24T00:56:55;153670.50;;;10.15;93.28
10127;BME280;13080;42.608;23.362;2023-05-24T00:59:22;153664.03;;;10.13;94.14
10127;BME280;13080;42.608;23.362;2023-05-24T01:01:50;153658.81;;;10.11;93.94
10127;BME280;13080;42.608;23.362;2023-05-24T01:04:19;153651.06;;;10.08;93.88
10127;BME280;13080;42.608;23.362;2023-05-24T01:06:58;153641.94;;;10.04;93.90
10127;BME280;13080;42.608;23.362;2023-05-24T01:09:34;153623.78;;;9.97;95.45
10127;BME280;13080;42.608;23.362;2023-05-24T01:12:13;153626.41;;;9.98;94.99
10127;BME280;13080;42.608;23.362;2023-05-24T01:14:52;153612.09;;;9.92;94.75
10127;BME280;13080;42.608;23.362;2023-05-24T01:17:28;153616.00;;;9.94;95.81
10127;BME280;13080;42.608;23.362;2023-05-24T01:20:01;153626.41;;;9.98;95.32
10127;BME280;13080;42.608;23.362;2023-05-24T01:25:45;153592.66;;;9.85;94.97
10127;BME280;13080;42.608;23.362;2023-05-24T01:28:16;153587.44;;;9.83;95.71
10127;BME280;13080;42.608;23.362;2023-05-24T01:30:43;153556.28;;;9.70;96.63
10127;BME280;13080;42.608;23.362;2023-05-24T01:33:13;153562.75;;;9.73;96.43
10127;BME280;13080;42.608;23.362;2023-05-24T01:35:40;153551.06;;;9.68;95.69
10127;BME280;13080;42.608;23.362;2023-05-24T01:38:07;153551.06;;;9.68;96.54
10127;BME280;13080;42.608;23.362;2023-05-24T01:40:36;153547.22;;;9.67;96.10
10127;BME280;13080;42.608;23.362;2023-05-24T01:43:05;153536.81;;;9.63;96.12
10127;BME280;13080;42.608;23.362;2023-05-24T01:45:43;153535.53;;;9.62;95.07
10127;BME280;13080;42.608;23.362;2023-05-24T01:48:15;153539.41;;;9.64;95.51
10127;BME280;13080;42.608;23.362;2023-05-24T01:50:48;153522.53;;;9.57;95.28
10127;BME280;13080;42.608;23.362;2023-05-24T01:53:19;153531.63;;;9.61;95.46
10127;BME280;13080;42.608;23.362;2023-05-24T01:55:52;153529.06;;;9.60;96.81
10127;BME280;13080;42.608;23.362;2023-05-24T01:58:24;153519.94;;;9.56;96.80
10127;BME280;13080;42.608;23.362;2023-05-24T02:00:54;153522.53;;;9.57;96.59
10127;BME280;13080;42.608;23.362;2023-05-24T02:03:21;153514.75;;;9.54;96.51
10127;BME280;13080;42.608;23.362;2023-05-24T02:05:48;153499.16;;;9.48;97.29
10127;BME280;13080;42.608;23.362;2023-05-24T02:08:15;153486.22;;;9.43;97.86
10127;BME280;13080;42.608;23.362;2023-05-24T02:10:42;153481.00;;;9.41;98.65
10127;BME280;13080;42.608;23.362;2023-05-24T02:13:09;153470.63;;;9.36;99.17
10127;BME280;13080;42.608;23.362;2023-05-24T02:15:35;153462.84;;;9.33;99.17
10127;BME280;13080;42.608;23.362;2023-05-24T02:18:04;153451.19;;;9.29;99.38
10127;BME280;13080;42.608;23.362;2023-05-24T02:20:32;153457.66;;;9.31;98.65
10127;BME280;13080;42.608;23.362;2023-05-24T02:23:01;153447.28;;;9.27;98.91
10127;BME280;13080;42.608;23.362;2023-05-24T02:25:28;153435.59;;;9.23;99.15
10127;BME280;13080;42.608;23.362;2023-05-24T02:27:55;153442.09;;;9.25;99.22
10127;BME280;13080;42.608;23.362;2023-05-24T02:30:22;153430.41;;;9.21;98.60
10127;BME280;13080;42.608;23.362;2023-05-24T02:32:49;153426.50;;;9.19;99.00
10127;BME280;13080;42.608;23.362;2023-05-24T02:35:17;153416.16;;;9.15;99.53
10127;BME280;13080;42.608;23.362;2023-05-24T02:37:44;153413.53;;;9.14;99.36
10127;BME280;13080;42.608;23.362;2023-05-24T02:40:11;153409.63;;;9.12;98.95
10127;BME280;13080;42.608;23.362;2023-05-24T02:42:38;153408.34;;;9.12;98.98
10127;BME280;13080;42.608;23.362;2023-05-24T02:45:06;153403.16;;;9.10;98.97
10127;BME280;13080;42.608;23.362;2023-05-24T02:47:33;153392.81;;;9.06;97.89
10127;BME280;13080;42.608;23.362;2023-05-24T02:50:00;153408.34;;;9.12;97.07
10127;BME280;13080;42.608;23.362;2023-05-24T02:52:28;153418.72;;;9.16;96.10
10127;BME280;13080;42.608;23.362;2023-05-24T02:54:55;153435.59;;;9.23;95.70
10127;BME280;13080;42.608;23.362;2023-05-24T02:57:22;153439.50;;;9.24;95.64
10127;BME280;13080;42.608;23.362;2023-05-24T02:59:48;153431.69;;;9.21;96.30
10127;BME280;13080;42.608;23.362;2023-05-24T03:02:15;153429.13;;;9.20;96.57
10127;BME280;13080;42.608;23.362;2023-05-24T03:04:42;153425.22;;;9.19;96.32
10127;BME280;13080;42.608;23.362;2023-05-24T03:07:08;153418.72;;;9.16;96.13
10127;BME280;13080;42.608;23.362;2023-05-24T03:09:37;153422.63;;;9.18;96.04
10127;BME280;13080;42.608;23.362;2023-05-24T03:12:05;153426.50;;;9.19;96.16
10127;BME280;13080;42.608;23.362;2023-05-24T03:14:31;153435.59;;;9.23;96.05
10127;BME280;13080;42.608;23.362;2023-05-24T03:16:58;153438.22;;;9.24;96.15
10127;BME280;13080;42.608;23.362;2023-05-24T03:19:25;153452.47;;;9.29;95.36
10127;BME280;13080;42.608;23.362;2023-05-24T03:21:51;153471.91;;;9.37;95.32
10127;BME280;13080;42.608;23.362;2023-05-24T03:24:18;153483.63;;;9.42;95.55
10127;BME280;13080;42.608;23.362;2023-05-24T03:26:47;153496.59;;;9.47;95.72
10127;BME280;13080;42.608;23.362;2023-05-24T03:29:14;153509.56;;;9.52;95.70
10127;BME280;13080;42.608;23.362;2023-05-24T03:31:40;153526.44;;;9.58;93.86
10127;BME280;13080;42.608;23.362;2023-05-24T03:34:07;153562.75;;;9.73;94.31
10127;BME280;13080;42.608;23.362;2023-05-24T03:36:34;153588.72;;;9.83;95.21
10127;BME280;13080;42.608;23.362;2023-05-24T03:39:01;153605.63;;;9.90;93.10
10127;BME280;13080;42.608;23.362;2023-05-24T03:41:28;153625.06;;;9.97;91.96
10127;BME280;13080;42.608;23.362;2023-05-24T03:43:57;153639.38;;;10.03;91.67
10127;BME280;13080;42.608;23.362;2023-05-24T03:46:24;153665.34;;;10.13;91.63
10127;BME280;13080;42.608;23.362;2023-05-24T03:48:51;153687.38;;;10.22;92.04
10127;BME280;13080;42.608;23.362;2023-05-24T03:51:18;153708.22;;;10.30;92.84
10127;BME280;13080;42.608;23.362;2023-05-24T03:53:44;153722.53;;;10.36;92.92
10127;BME280;13080;42.608;23.362;2023-05-24T03:56:14;153739.41;;;10.43;91.04
10127;BME280;13080;42.608;23.362;2023-05-24T03:58:41;153762.78;;;10.52;90.83
10127;BME280;13080;42.608;23.362;2023-05-24T04:01:09;153787.44;;;10.61;89.14
10127;BME280;13080;42.608;23.362;2023-05-24T04:03:36;153812.09;;;10.71;88.99
10127;BME280;13080;42.608;23.362;2023-05-24T04:06:03;153843.31;;;10.84;89.13
10127;BME280;13080;42.608;23.362;2023-05-24T04:08:30;153871.88;;;10.95;88.42
10127;BME280;13080;42.608;23.362;2023-05-24T04:10:56;153900.47;;;11.06;86.88
10127;BME280;13080;42.608;23.362;2023-05-24T04:13:23;153938.13;;;11.21;86.02
10127;BME280;13080;42.608;23.362;2023-05-24T04:15:50;153956.34;;;11.28;86.46
10127;BME280;13080;42.608;23.362;2023-05-24T04:18:18;153986.22;;;11.40;84.65
10127;BME280;13080;42.608;23.362;2023-05-24T04:20:45;154008.31;;;11.49;84.76
10127;BME280;13080;42.608;23.362;2023-05-24T04:23:12;154038.22;;;11.60;84.12
10127;BME280;13080;42.608;23.362;2023-05-24T04:25:39;154059.03;;;11.69;83.61
10127;BME280;13080;42.608;23.362;2023-05-24T04:28:06;154073.28;;;11.74;83.39
10127;BME280;13080;42.608;23.362;2023-05-24T04:30:33;154104.53;;;11.86;83.83
10127;BME280;13080;42.608;23.362;2023-05-24T04:33:01;154125.34;;;11.95;84.75
10127;BME280;13080;42.608;23.362;2023-05-24T04:35:29;154147.44;;;12.03;85.66
10127;BME280;13080;42.608;23.362;2023-05-24T04:37:56;154169.56;;;12.12;85.99
10127;BME280;13080;42.608;23.362;2023-05-24T04:40:24;154195.59;;;12.22;86.88
10127;BME280;13080;42.608;23.362;2023-05-24T04:42:51;154215.06;;;12.30;87.09
10127;BME280;13080;42.608;23.362;2023-05-24T04:45:17;154220.28;;;12.32;87.26
10127;BME280;13080;42.608;23.362;2023-05-24T04:47:44;154235.88;;;12.38;86.74
10127;BME280;13080;42.608;23.362;2023-05-24T04:50:11;154244.97;;;12.42;84.92
10127;BME280;13080;42.608;23.362;2023-05-24T04:52:39;154251.50;;;12.44;84.10
10127;BME280;13080;42.608;23.362;2023-05-24T04:55:06;154256.66;;;12.46;84.24
10127;BME280;13080;42.608;23.362;2023-05-24T04:57:33;154311.31;;;12.68;82.04
10127;BME280;13080;42.608;23.362;2023-05-24T05:00:00;154323.03;;;12.73;83.52
10127;BME280;13080;42.608;23.362;2023-05-24T05:02:26;154345.16;;;12.81;83.02
10127;BME280;13080;42.608;23.362;2023-05-24T05:04:53;154369.84;;;12.91;82.65
10127;BME280;13080;42.608;23.362;2023-05-24T05:07:20;154389.38;;;12.99;82.16
10127;BME280;13080;42.608;23.362;2023-05-24T05:09:48;154399.81;;;13.03;82.78
10127;BME280;13080;42.608;23.362;2023-05-24T05:12:15;154415.38;;;13.09;82.44
10127;BME280;13080;42.608;23.362;2023-05-24T05:14:42;154453.13;;;13.24;82.56
10127;BME280;13080;42.608;23.362;2023-05-24T05:17:09;154471.41;;;13.31;82.45
10127;BME280;13080;42.608;23.362;2023-05-24T05:19:35;154514.38;;;13.48;81.41
10127;BME280;13080;42.608;23.362;2023-05-24T05:22:02;154533.88;;;13.56;80.50
10127;BME280;13080;42.608;23.362;2023-05-24T05:24:29;154546.88;;;13.61;80.29
10127;BME280;13080;42.608;23.362;2023-05-24T05:26:57;154576.84;;;13.72;82.42
10127;BME280;13080;42.608;23.362;2023-05-24T05:29:24;154606.78;;;13.84;80.46
10127;BME280;13080;42.608;23.362;2023-05-24T05:31:51;154627.63;;;13.92;81.18
10127;BME280;13080;42.608;23.362;2023-05-24T05:34:17;154653.66;;;14.03;82.14
10127;BME280;13080;42.608;23.362;2023-05-24T05:36:45;154673.19;;;14.10;82.44
10127;BME280;13080;42.608;23.362;2023-05-24T05:39:12;154695.31;;;14.19;81.07
10127;BME280;13080;42.608;23.362;2023-05-24T05:41:39;154714.84;;;14.27;80.52
10127;BME280;13080;42.608;23.362;2023-05-24T05:44:09;154734.38;;;14.34;80.71
10127;BME280;13080;42.608;23.362;2023-05-24T05:46:36;154772.16;;;14.49;79.58
10127;BME280;13080;42.608;23.362;2023-05-24T05:49:03;154782.59;;;14.53;77.17
10127;BME280;13080;42.608;23.362;2023-05-24T05:51:30;154796.94;;;14.59;78.38
10127;BME280;13080;42.608;23.362;2023-05-24T05:53:57;154800.88;;;14.61;77.71
10127;BME280;13080;42.608;23.362;2023-05-24T05:56:23;154829.53;;;14.72;76.64
10127;BME280;13080;42.608;23.362;2023-05-24T05:58:52;154869.91;;;14.88;77.50
10127;BME280;13080;42.608;23.362;2023-05-24T06:01:20;154886.84;;;14.94;74.31
10127;BME280;13080;42.608;23.362;2023-05-24T06:03:48;154931.16;;;15.12;73.19
10127;BME280;13080;42.608;23.362;2023-05-24T06:06:16;154940.25;;;15.15;74.56
10127;BME280;13080;42.608;23.362;2023-05-24T06:08:42;154968.91;;;15.27;75.01
10127;BME280;13080;42.608;23.362;2023-05-24T06:11:09;155021.09;;;15.47;74.62
10127;BME280;13080;42.608;23.362;2023-05-24T06:13:36;155075.81;;;15.69;74.29
10127;BME280;13080;42.608;23.362;2023-05-24T06:16:03;155105.84;;;15.80;71.65
10127;BME280;13080;42.608;23.362;2023-05-24T06:18:34;155169.75;;;16.06;71.13
10127;BME280;13080;42.608;23.362;2023-05-24T06:21:01;155186.72;;;16.12;71.55
10127;BME280;13080;42.608;23.362;2023-05-24T06:23:28;155201.03;;;16.18;70.54
10127;BME280;13080;42.608;23.362;2023-05-24T06:25:55;155210.19;;;16.21;71.74
10127;BME280;13080;42.608;23.362;2023-05-24T06:28:22;155242.75;;;16.34;68.89
10127;BME280;13080;42.608;23.362;2023-05-24T06:30:48;155228.44;;;16.29;68.18
10127;BME280;13080;42.608;23.362;2023-05-24T06:33:16;155221.91;;;16.26;67.49
10127;BME280;13080;42.608;23.362;2023-05-24T06:35:44;155261.06;;;16.41;67.51
10127;BME280;13080;42.608;23.362;2023-05-24T06:38:11;155308.00;;;16.60;67.84
10127;BME280;13080;42.608;23.362;2023-05-24T06:40:37;155338.00;;;16.72;69.67
10127;BME280;13080;42.608;23.362;2023-05-24T06:43:04;155352.38;;;16.77;66.53
10127;BME280;13080;42.608;23.362;2023-05-24T06:45:31;155381.13;;;16.89;65.99
10127;BME280;13080;42.608;23.362;2023-05-24T06:47:58;155395.44;;;16.94;65.31
10127;BME280;13080;42.608;23.362;2023-05-24T06:50:25;155392.84;;;16.93;66.66
10127;BME280;13080;42.608;23.362;2023-05-24T06:52:53;155381.13;;;16.89;66.79
10127;BME280;13080;42.608;23.362;2023-05-24T06:55:21;155420.25;;;17.04;64.86
10127;BME280;13080;42.608;23.362;2023-05-24T06:57:47;155387.63;;;16.91;68.34
10127;BME280;13080;42.608;23.362;2023-05-24T07:00:15;155446.34;;;17.14;66.98
10127;BME280;13080;42.608;23.362;2023-05-24T07:02:42;155472.47;;;17.24;66.90
10127;BME280;13080;42.608;23.362;2023-05-24T07:05:09;155511.63;;;17.40;65.16
10127;BME280;13080;42.608;23.362;2023-05-24T07:07:37;155497.22;;;17.34;64.29
10127;BME280;13080;42.608;23.362;2023-05-24T07:10:07;155511.63;;;17.40;65.59
10127;BME280;13080;42.608;23.362;2023-05-24T07:12:34;155503.75;;;17.37;65.58
10127;BME280;13080;42.608;23.362;2023-05-24T07:15:01;155519.44;;;17.43;65.92
10127;BME280;13080;42.608;23.362;2023-05-24T07:17:28;155553.38;;;17.56;64.33
10127;BME280;13080;42.608;23.362;2023-05-24T07:19:55;155583.38;;;17.68;64.20
10127;BME280;13080;42.608;23.362;2023-05-24T07:22:22;155583.38;;;17.68;62.99
10127;BME280;13080;42.608;23.362;2023-05-24T07:24:51;155629.13;;;17.86;63.42
10127;BME280;13080;42.608;23.362;2023-05-24T07:27:23;155636.94;;;17.89;62.49
10127;BME280;13080;42.608;23.362;2023-05-24T07:29:51;155652.63;;;17.95;63.97
10127;BME280;13080;42.608;23.362;2023-05-24T07:32:18;155686.56;;;18.08;63.90
10127;BME280;13080;42.608;23.362;2023-05-24T07:34:45;155676.13;;;18.04;64.55
10127;BME280;13080;42.608;23.362;2023-05-24T07:37:12;155694.44;;;18.12;64.81
10127;BME280;13080;42.608;23.362;2023-05-24T07:39:39;155729.69;;;18.25;62.40
10127;BME280;13080;42.608;23.362;2023-05-24T07:42:06;155714.00;;;18.19;61.89
10127;BME280;13080;42.608;23.362;2023-05-24T07:44:35;155775.41;;;18.43;61.21
10127;BME280;13080;42.608;23.362;2023-05-24T07:47:02;155776.69;;;18.44;59.34
10127;BME280;13080;42.608;23.362;2023-05-24T07:49:29;155764.94;;;18.39;60.91
10127;BME280;13080;42.608;23.362;2023-05-24T07:51:56;155785.84;;;18.47;58.60
10127;BME280;13080;42.608;23.362;2023-05-24T07:54:24;155796.25;;;18.52;58.71
10127;BME280;13080;42.608;23.362;2023-05-24T07:56:51;155818.47;;;18.60;55.59
10127;BME280;13080;42.608;23.362;2023-05-24T07:59:17;155851.13;;;18.73;55.37
10127;BME280;13080;42.608;23.362;2023-05-24T08:01:46;155858.97;;;18.76;53.31
10127;BME280;13080;42.608;23.362;2023-05-24T08:04:13;155861.66;;;18.77;54.68
10127;BME280;13080;42.608;23.362;2023-05-24T08:06:40;155855.06;;;18.75;58.76
10127;BME280;13080;42.608;23.362;2023-05-24T08:09:07;155904.75;;;18.94;54.19
10127;BME280;13080;42.608;23.362;2023-05-24T08:11:34;155949.19;;;19.11;52.31
10127;BME280;13080;42.608;23.362;2023-05-24T08:14:01;155987.09;;;19.26;53.15
10127;BME280;13080;42.608;23.362;2023-05-24T08:16:27;156009.31;;;19.35;50.27
10127;BME280;13080;42.608;23.362;2023-05-24T08:18:56;156035.41;;;19.45;51.92
10127;BME280;13080;42.608;23.362;2023-05-24T08:21:23;156036.72;;;19.46;53.24
10127;BME280;13080;42.608;23.362;2023-05-24T08:23:50;156039.34;;;19.47;50.35
10127;BME280;13080;42.608;23.362;2023-05-24T08:26:17;156052.41;;;19.52;51.70
10127;BME280;13080;42.608;23.362;2023-05-24T08:28:45;156065.47;;;19.57;50.77
10127;BME280;13080;42.608;23.362;2023-05-24T08:31:12;156075.94;;;19.61;51.05
10127;BME280;13080;42.608;23.362;2023-05-24T08:33:39;156066.81;;;19.58;48.47
10127;BME280;13080;42.608;23.362;2023-05-24T08:36:09;156058.94;;;19.55;48.77
10127;BME280;13080;42.608;23.362;2023-05-24T08:38:35;156031.47;;;19.44;50.44
10127;BME280;13080;42.608;23.362;2023-05-24T08:41:04;156081.16;;;19.63;52.20
10127;BME280;13080;42.608;23.362;2023-05-24T08:43:32;156136.13;;;19.85;53.72
10127;BME280;13080;42.608;23.362;2023-05-24T08:46:01;156175.38;;;20.00;51.05
10127;BME280;13080;42.608;23.362;2023-05-24T08:48:29;156238.13;;;20.25;52.95
10127;BME280;13080;42.608;23.362;2023-05-24T08:50:56;156255.13;;;20.31;43.51
10127;BME280;13080;42.608;23.362;2023-05-24T08:53:25;156299.56;;;20.49;45.93
10127;BME280;13080;42.608;23.362;2023-05-24T08:55:53;156340.16;;;20.65;45.50
10127;BME280;13080;42.608;23.362;2023-05-24T08:58:20;156340.16;;;20.65;47.63
10127;BME280;13080;42.608;23.362;2023-05-24T09:00:47;156333.63;;;20.62;47.79
10127;BME280;13080;42.608;23.362;2023-05-24T09:03:15;156358.50;;;20.72;44.24
10127;BME280;13080;42.608;23.362;2023-05-24T09:05:43;156306.09;;;20.51;43.82
10127;BME280;13080;42.608;23.362;2023-05-24T09:08:11;156269.50;;;20.37;42.66
10127;BME280;13080;42.608;23.362;2023-05-24T09:10:43;156295.66;;;20.47;45.89
10127;BME280;13080;42.608;23.362;2023-05-24T09:13:11;156327.09;;;20.60;44.30
10127;BME280;13080;42.608;23.362;2023-05-24T09:15:40;156310.03;;;20.53;41.81
10127;BME280;13080;42.608;23.362;2023-05-24T09:18:08;156319.25;;;20.57;44.34
10127;BME280;13080;42.608;23.362;2023-05-24T09:20:35;156299.56;;;20.49;42.70
10127;BME280;13080;42.608;23.362;2023-05-24T09:23:03;156277.31;;;20.40;43.08
10127;BME280;13080;42.608;23.362;2023-05-24T09:25:31;156299.56;;;20.49;45.93
10127;BME280;13080;42.608;23.362;2023-05-24T09:28:05;156345.38;;;20.67;42.57
10127;BME280;13080;42.608;23.362;2023-05-24T09:30:32;156384.63;;;20.82;45.00
10127;BME280;13080;42.608;23.362;2023-05-24T09:32:59;156397.72;;;20.87;43.44
10127;BME280;13080;42.608;23.362;2023-05-24T09:35:28;156423.91;;;20.97;43.97
10127;BME280;13080;42.608;23.362;2023-05-24T09:37:56;156426.53;;;20.99;43.37
10127;BME280;13080;42.608;23.362;2023-05-24T09:40:24;156434.38;;;21.02;44.08
10127;BME280;13080;42.608;23.362;2023-05-24T09:43:04;156444.84;;;21.06;45.37
10127;BME280;13080;42.608;23.362;2023-05-24T09:45:31;156474.91;;;21.17;42.86
10127;BME280;13080;42.608;23.362;2023-05-24T09:47:58;156467.09;;;21.14;41.58
10127;BME280;13080;42.608;23.362;2023-05-24T09:50:25;156467.09;;;21.14;42.99
10127;BME280;13080;42.608;23.362;2023-05-24T09:52:53;156490.63;;;21.24;44.22
10127;BME280;13080;42.608;23.362;2023-05-24T09:55:20;156523.31;;;21.36;45.25
10127;BME280;13080;42.608;23.362;2023-05-24T09:57:49;156561.34;;;21.51;43.68
10127;BME280;13080;42.608;23.362;2023-05-24T10:00:22;156595.38;;;21.65;41.82
10127;BME280;13080;42.608;23.362;2023-05-24T10:02:59;156588.81;;;21.62;45.36
10127;BME280;13080;42.608;23.362;2023-05-24T10:05:26;156562.63;;;21.52;39.78
10127;BME280;13080;42.608;23.362;2023-05-24T10:07:54;156571.81;;;21.55;40.25
10127;BME280;13080;42.608;23.362;2023-05-24T10:10:21;156612.38;;;21.71;39.02
10127;BME280;13080;42.608;23.362;2023-05-24T10:12:49;156625.47;;;21.76;41.98
10127;BME280;13080;42.608;23.362;2023-05-24T10:15:17;156628.09;;;21.77;39.39
10127;BME280;13080;42.608;23.362;2023-05-24T10:17:45;156645.13;;;21.84;39.83
10127;BME280;13080;42.608;23.362;2023-05-24T10:20:13;156667.38;;;21.93;42.45
10127;BME280;13080;42.608;23.362;2023-05-24T10:22:43;156709.25;;;22.09;40.77
10127;BME280;13080;42.608;23.362;2023-05-24T10:25:14;156707.97;;;22.09;39.50
10127;BME280;13080;42.608;23.362;2023-05-24T10:27:43;156724.97;;;22.15;40.34
10127;BME280;13080;42.608;23.362;2023-05-24T10:30:16;156738.06;;;22.20;38.26
10127;BME280;13080;42.608;23.362;2023-05-24T10:32:49;156773.47;;;22.34;37.34
10127;BME280;13080;42.608;23.362;2023-05-24T10:35:17;156748.59;;;22.25;36.43
10127;BME280;13080;42.608;23.362;2023-05-24T10:37:45;156740.72;;;22.21;38.12
10127;BME280;13080;42.608;23.362;2023-05-24T10:40:16;156762.97;;;22.30;40.81
10127;BME280;13080;42.608;23.362;2023-05-24T10:42:44;156780.00;;;22.37;39.99
10127;BME280;13080;42.608;23.362;2023-05-24T10:45:31;156808.81;;;22.48;36.71
10127;BME280;13080;42.608;23.362;2023-05-24T10:48:07;156806.22;;;22.47;37.71
10127;BME280;13080;42.608;23.362;2023-05-24T10:50:34;156823.22;;;22.54;36.75
10127;BME280;13080;42.608;23.362;2023-05-24T10:53:11;156810.09;;;22.49;37.99
10127;BME280;13080;42.608;23.362;2023-05-24T10:56:00;156821.94;;;22.53;36.46
10127;BME280;13080;42.608;23.362;2023-05-24T10:58:44;156831.06;;;22.57;34.79
10127;BME280;13080;42.608;23.362;2023-05-24T11:01:12;156785.22;;;22.39;36.26
10127;BME280;13080;42.608;23.362;2023-05-24T11:03:41;156772.16;;;22.34;35.46
10127;BME280;13080;42.608;23.362;2023-05-24T11:06:08;156749.88;;;22.25;37.01
10127;BME280;13080;42.608;23.362;2023-05-24T11:08:40;156728.88;;;22.17;41.43
10127;BME280;13080;42.608;23.362;2023-05-24T11:11:10;156734.13;;;22.19;39.13
10127;BME280;13080;42.608;23.362;2023-05-24T11:13:37;156735.41;;;22.19;37.66
10127;BME280;13080;42.608;23.362;2023-05-24T11:16:05;156734.13;;;22.19;37.00
10127;BME280;13080;42.608;23.362;2023-05-24T11:18:32;156728.88;;;22.17;37.66
10127;BME280;13080;42.608;23.362;2023-05-24T11:21:04;156752.47;;;22.26;38.35
10127;BME280;13080;42.608;23.362;2023-05-24T11:23:32;156762.97;;;22.30;37.39
10127;BME280;13080;42.608;23.362;2023-05-24T11:26:00;156764.28;;;22.31;37.43
10127;BME280;13080;42.608;23.362;2023-05-24T11:28:28;156773.47;;;22.34;39.23
10127;BME280;13080;42.608;23.362;2023-05-24T11:30:55;156793.06;;;22.42;38.98
10127;BME280;13080;42.608;23.362;2023-05-24T11:33:23;156791.78;;;22.41;36.63
10127;BME280;13080;42.608;23.362;2023-05-24T11:35:51;156820.59;;;22.53;37.77
10127;BME280;13080;42.608;23.362;2023-05-24T11:38:20;156807.50;;;22.48;37.32
10127;BME280;13080;42.608;23.362;2023-05-24T11:40:49;156797.03;;;22.44;38.17
10127;BME280;13080;42.608;23.362;2023-05-24T11:43:17;156824.53;;;22.54;41.50
10127;BME280;13080;42.608;23.362;2023-05-24T11:45:45;156795.72;;;22.43;38.76
10127;BME280;13080;42.608;23.362;2023-05-24T11:48:13;156795.72;;;22.43;35.97
10127;BME280;13080;42.608;23.362;2023-05-24T11:50:41;156816.69;;;22.51;37.08
10127;BME280;13080;42.608;23.362;2023-05-24T11:53:09;156837.59;;;22.59;37.77
10127;BME280;13080;42.608;23.362;2023-05-24T11:55:38;156866.44;;;22.71;34.92
10127;BME280;13080;42.608;23.362;2023-05-24T11:58:09;156861.19;;;22.69;37.42
10127;BME280;13080;42.608;23.362;2023-05-24T12:00:37;156838.91;;;22.60;35.97
10127;BME280;13080;42.608;23.362;2023-05-24T12:03:04;156858.59;;;22.68;36.69
10127;BME280;13080;42.608;23.362;2023-05-24T12:05:33;156845.50;;;22.62;34.16
10127;BME280;13080;42.608;23.362;2023-05-24T12:08:02;156836.31;;;22.59;35.94
10127;BME280;13080;42.608;23.362;2023-05-24T12:10:31;156828.47;;;22.56;36.31
10127;BME280;13080;42.608;23.362;2023-05-24T12:13:00;156872.97;;;22.73;34.92
10127;BME280;13080;42.608;23.362;2023-05-24T12:15:28;156888.69;;;22.79;35.94
10127;BME280;13080;42.608;23.362;2023-05-24T12:17:55;156888.69;;;22.79;36.95
10127;BME280;13080;42.608;23.362;2023-05-24T12:20:22;156897.88;;;22.83;35.87
10127;BME280;13080;42.608;23.362;2023-05-24T12:22:50;156905.72;;;22.86;34.67
10127;BME280;13080;42.608;23.362;2023-05-24T12:25:17;156903.13;;;22.85;36.06
10127;BME280;13080;42.608;23.362;2023-05-24T12:27:46;156892.63;;;22.81;37.96
10127;BME280;13080;42.608;23.362;2023-05-24T12:30:15;156913.63;;;22.89;38.85
10127;BME280;13080;42.608;23.362;2023-05-24T12:32:46;156908.38;;;22.87;39.70
10127;BME280;13080;42.608;23.362;2023-05-24T12:35:13;156937.19;;;22.98;37.26
10127;BME280;13080;42.608;23.362;2023-05-24T12:37:42;156930.59;;;22.96;37.72
10127;BME280;13080;42.608;23.362;2023-05-24T12:40:16;156939.84;;;22.99;39.89
10127;BME280;13080;42.608;23.362;2023-05-24T12:42:45;156951.63;;;23.04;36.21
10127;BME280;13080;42.608;23.362;2023-05-24T12:45:15;156935.84;;;22.98;36.11
10127;BME280;13080;42.608;23.362;2023-05-24T12:47:48;156937.19;;;22.98;37.12
10127;BME280;13080;42.608;23.362;2023-05-24T12:50:15;156917.50;;;22.91;37.37